Earlville, IL (60518)

7:17 AM CDT on September 05, 2015 (GMT -0500)
Farm 34 | | Change Station
CLOSE
Current Station
Personal Weather Station
Location: Earlville, IL
Elevation: 699 ft
Nearby Weather Stations

Elev 699 ft 41.59 °N, 88.85 °W | Updated 6 minutes ago

Mostly Cloudy
Mostly Cloudy
70.3 °F
Feels Like 70.3 °F
N
0.0
Wind Variable Wind from SSE
Gusts 7.0 mph

Today
High -- | Low -- °F
--% Chance of Precip.
Yesterday
High -- | Low -- °F
Precip. -- in
6:25 AM 7:22 PM
Waning Gibbous, 49% visible
Pressure 30.09 in
Visibility 7.0 miles
Clouds Clear
Dew Point 69 °F
Humidity 94%
Rainfall 0.00 in
Snow Depth Not available.
UV 0 out of 12
Pollen 4.90 out of 12
Air Quality Not available.
Flu Activity Not available.
METAR KVYS 051155Z AUTO 00000KT 7SM CLR 21/20 A3009 RMK AO2 T02120195 10233 20211
Pressure 30.09 in
Visibility 7.0 miles
Clouds Clear
Dew Point 69 °F
Humidity 94%
Rainfall 0.00 in
Snow Depth Not available.
UV 0 out of 12
Pollen 4.90 out of 12
Air Quality Not available.
Flu Activity Not available.
METAR KVYS 051155Z AUTO 00000KT 7SM CLR 21/20 A3009 RMK AO2 T02120195 10233 20211

10-Day Weather Forecast

×

Almanac

Astronomy

Sep. 05, 2015 Rise Set
Actual Time
Civil Twilight
Nautical Twilight
Astronomical Twilight
Moon
Length of Visible Light
Length of Day
Tomorrow will be .
, % of the Moon is Illuminated

Today's Extremes

State Highs State Lows

Community

WunderPhotos

Upload Photos

1,852,455 photos uploaded!

WunderBlogs® & News

Nearby

Air Quality

  Air Quality AQ Index Pollutant
Not available.

Snow Depth

Station Depth Elevation

Earthquake Activity

City Distance Mag. Time & Date
Minimum magnitude displayed is 2.5.

Coastal Water Temperatures

Place Temperature

Stations

Nearby Weather Stations

Station Location Temp. Windchill Dew Point Humidity Wind Precip. Elev Updated Type